sensor_id;sensor_type;location;lat;lon;timestamp;P1;durP1;ratioP1;P2;durP2;ratioP2
31390;SDS011;18022;45.492;11.548;2022-11-15T00:00:18;11.35;;;9.88;;
31390;SDS011;18022;45.492;11.548;2022-11-15T00:02:44;12.95;;;10.57;;
31390;SDS011;18022;45.492;11.548;2022-11-15T00:05:10;11.15;;;9.73;;
31390;SDS011;18022;45.492;11.548;2022-11-15T00:07:36;10.52;;;9.15;;
31390;SDS011;18022;45.492;11.548;2022-11-15T00:10:01;11.48;;;10.07;;
31390;SDS011;18022;45.492;11.548;2022-11-15T00:12:28;13.10;;;11.68;;
31390;SDS011;18022;45.492;11.548;2022-11-15T00:14:54;8.77;;;7.88;;
31390;SDS011;18022;45.492;11.548;2022-11-15T00:17:19;9.63;;;8.63;;
31390;SDS011;18022;45.492;11.548;2022-11-15T00:19:45;9.65;;;8.50;;
31390;SDS011;18022;45.492;11.548;2022-11-15T00:22:11;10.60;;;8.55;;
31390;SDS011;18022;45.492;11.548;2022-11-15T00:24:36;11.13;;;9.05;;
31390;SDS011;18022;45.492;11.548;2022-11-15T00:27:02;10.07;;;8.90;;
31390;SDS011;18022;45.492;11.548;2022-11-15T00:29:28;9.38;;;8.48;;
31390;SDS011;18022;45.492;11.548;2022-11-15T00:31:53;10.73;;;9.05;;
31390;SDS011;18022;45.492;11.548;2022-11-15T00:34:19;9.82;;;8.70;;
31390;SDS011;18022;45.492;11.548;2022-11-15T00:36:45;6.30;;;5.70;;
31390;SDS011;18022;45.492;11.548;2022-11-15T00:39:10;7.10;;;6.25;;
31390;SDS011;18022;45.492;11.548;2022-11-15T00:41:36;7.75;;;7.03;;
31390;SDS011;18022;45.492;11.548;2022-11-15T00:44:02;13.68;;;9.20;;
31390;SDS011;18022;45.492;11.548;2022-11-15T00:46:27;12.13;;;9.63;;
31390;SDS011;18022;45.492;11.548;2022-11-15T00:48:53;11.20;;;9.30;;
31390;SDS011;18022;45.492;11.548;2022-11-15T00:51:19;10.93;;;9.82;;
31390;SDS011;18022;45.492;11.548;2022-11-15T00:53:44;11.20;;;10.02;;
31390;SDS011;18022;45.492;11.548;2022-11-15T00:56:10;17.75;;;12.48;;
31390;SDS011;18022;45.492;11.548;2022-11-15T00:58:36;17.20;;;12.43;;
31390;SDS011;18022;45.492;11.548;2022-11-15T01:01:09;11.68;;;10.48;;
31390;SDS011;18022;45.492;11.548;2022-11-15T01:03:36;11.18;;;9.50;;
31390;SDS011;18022;45.492;11.548;2022-11-15T01:06:03;8.30;;;7.47;;
31390;SDS011;18022;45.492;11.548;2022-11-15T01:08:29;9.68;;;8.55;;
31390;SDS011;18022;45.492;11.548;2022-11-15T01:10:59;19.42;;;8.82;;
31390;SDS011;18022;45.492;11.548;2022-11-15T01:13:30;31.27;;;9.50;;
31390;SDS011;18022;45.492;11.548;2022-11-15T01:15:56;12.45;;;10.30;;
31390;SDS011;18022;45.492;11.548;2022-11-15T01:18:22;11.25;;;10.05;;
31390;SDS011;18022;45.492;11.548;2022-11-15T01:20:48;10.15;;;8.38;;
31390;SDS011;18022;45.492;11.548;2022-11-15T01:23:14;14.10;;;9.73;;
31390;SDS011;18022;45.492;11.548;2022-11-15T01:25:39;11.45;;;9.38;;
31390;SDS011;18022;45.492;11.548;2022-11-15T01:28:05;11.82;;;7.80;;
31390;SDS011;18022;45.492;11.548;2022-11-15T01:30:31;8.18;;;7.10;;
31390;SDS011;18022;45.492;11.548;2022-11-15T01:32:56;22.58;;;9.50;;
31390;SDS011;18022;45.492;11.548;2022-11-15T01:35:22;26.63;;;8.90;;
31390;SDS011;18022;45.492;11.548;2022-11-15T01:37:48;21.05;;;10.05;;
31390;SDS011;18022;45.492;11.548;2022-11-15T01:40:14;27.42;;;10.10;;
31390;SDS011;18022;45.492;11.548;2022-11-15T01:42:39;31.23;;;10.90;;
31390;SDS011;18022;45.492;11.548;2022-11-15T01:45:05;12.20;;;10.90;;
31390;SDS011;18022;45.492;11.548;2022-11-15T01:47:38;12.70;;;11.00;;
31390;SDS011;18022;45.492;11.548;2022-11-15T01:50:11;10.95;;;9.77;;
31390;SDS011;18022;45.492;11.548;2022-11-15T01:52:40;10.68;;;9.57;;
31390;SDS011;18022;45.492;11.548;2022-11-15T01:57:35;40.95;;;9.60;;
31390;SDS011;18022;45.492;11.548;2022-11-15T02:00:02;10.18;;;9.02;;
31390;SDS011;18022;45.492;11.548;2022-11-15T02:02:30;11.30;;;9.15;;
31390;SDS011;18022;45.492;11.548;2022-11-15T02:04:56;18.88;;;8.55;;
31390;SDS011;18022;45.492;11.548;2022-11-15T02:07:22;11.38;;;7.38;;
31390;SDS011;18022;45.492;11.548;2022-11-15T02:09:48;11.93;;;7.53;;
31390;SDS011;18022;45.492;11.548;2022-11-15T02:12:16;34.05;;;7.38;;
31390;SDS011;18022;45.492;11.548;2022-11-15T02:14:46;22.27;;;7.28;;
31390;SDS011;18022;45.492;11.548;2022-11-15T02:22:42;46.83;;;10.05;;
31390;SDS011;18022;45.492;11.548;2022-11-15T02:36:19;13.32;;;8.45;;
31390;SDS011;18022;45.492;11.548;2022-11-15T02:38:53;13.18;;;7.38;;
31390;SDS011;18022;45.492;11.548;2022-11-15T02:41:21;37.13;;;7.95;;
31390;SDS011;18022;45.492;11.548;2022-11-15T02:49:24;11.57;;;8.05;;
31390;SDS011;18022;45.492;11.548;2022-11-15T02:51:54;8.73;;;7.55;;
31390;SDS011;18022;45.492;11.548;2022-11-15T02:54:39;9.68;;;7.35;;
31390;SDS011;18022;45.492;11.548;2022-11-15T02:57:06;51.30;;;8.48;;
31390;SDS011;18022;45.492;11.548;2022-11-15T03:02:32;16.98;;;8.48;;
31390;SDS011;18022;45.492;11.548;2022-11-15T03:08:07;9.75;;;8.55;;
31390;SDS011;18022;45.492;11.548;2022-11-15T03:10:51;10.40;;;8.50;;
31390;SDS011;18022;45.492;11.548;2022-11-15T03:16:12;10.77;;;8.98;;
31390;SDS011;18022;45.492;11.548;2022-11-15T03:19:04;12.63;;;9.25;;
31390;SDS011;18022;45.492;11.548;2022-11-15T03:21:45;13.43;;;9.27;;
31390;SDS011;18022;45.492;11.548;2022-11-15T03:26:41;15.30;;;9.02;;
31390;SDS011;18022;45.492;11.548;2022-11-15T03:29:14;17.63;;;9.63;;
31390;SDS011;18022;45.492;11.548;2022-11-15T03:31:46;15.77;;;10.32;;
31390;SDS011;18022;45.492;11.548;2022-11-15T03:34:19;20.05;;;10.52;;
31390;SDS011;18022;45.492;11.548;2022-11-15T03:36:45;14.75;;;10.38;;
31390;SDS011;18022;45.492;11.548;2022-11-15T03:39:12;15.77;;;10.32;;
31390;SDS011;18022;45.492;11.548;2022-11-15T03:41:46;13.68;;;10.27;;
31390;SDS011;18022;45.492;11.548;2022-11-15T03:47:06;10.18;;;9.13;;
31390;SDS011;18022;45.492;11.548;2022-11-15T03:49:41;19.02;;;11.15;;
31390;SDS011;18022;45.492;11.548;2022-11-15T03:52:10;12.15;;;10.07;;
31390;SDS011;18022;45.492;11.548;2022-11-15T03:54:37;23.60;;;11.15;;
31390;SDS011;18022;45.492;11.548;2022-11-15T03:57:15;17.40;;;10.60;;
31390;SDS011;18022;45.492;11.548;2022-11-15T03:59:41;29.67;;;11.00;;
31390;SDS011;18022;45.492;11.548;2022-11-15T04:02:06;21.40;;;11.13;;
31390;SDS011;18022;45.492;11.548;2022-11-15T04:04:32;14.27;;;10.65;;
31390;SDS011;18022;45.492;11.548;2022-11-15T04:06:58;12.63;;;10.75;;
31390;SDS011;18022;45.492;11.548;2022-11-15T04:09:23;17.70;;;11.05;;
31390;SDS011;18022;45.492;11.548;2022-11-15T04:11:49;14.05;;;10.68;;
31390;SDS011;18022;45.492;11.548;2022-11-15T04:14:15;13.77;;;11.70;;
31390;SDS011;18022;45.492;11.548;2022-11-15T04:16:40;44.90;;;12.85;;
31390;SDS011;18022;45.492;11.548;2022-11-15T04:19:06;40.53;;;12.55;;
31390;SDS011;18022;45.492;11.548;2022-11-15T04:21:50;16.13;;;11.82;;
31390;SDS011;18022;45.492;11.548;2022-11-15T04:24:35;23.65;;;12.10;;
31390;SDS011;18022;45.492;11.548;2022-11-15T04:27:00;23.52;;;12.18;;
31390;SDS011;18022;45.492;11.548;2022-11-15T04:29:26;53.78;;;13.07;;
31390;SDS011;18022;45.492;11.548;2022-11-15T04:32:04;20.33;;;13.13;;
31390;SDS011;18022;45.492;11.548;2022-11-15T04:34:31;20.38;;;12.63;;
31390;SDS011;18022;45.492;11.548;2022-11-15T04:36:58;25.95;;;11.70;;
31390;SDS011;18022;45.492;11.548;2022-11-15T04:39:40;16.38;;;13.10;;
31390;SDS011;18022;45.492;11.548;2022-11-15T04:42:06;25.50;;;13.65;;
31390;SDS011;18022;45.492;11.548;2022-11-15T04:44:32;23.23;;;13.02;;
31390;SDS011;18022;45.492;11.548;2022-11-15T04:46:58;17.98;;;12.73;;
31390;SDS011;18022;45.492;11.548;2022-11-15T04:49:24;16.95;;;13.65;;
31390;SDS011;18022;45.492;11.548;2022-11-15T04:51:49;32.50;;;13.45;;
31390;SDS011;18022;45.492;11.548;2022-11-15T04:54:15;39.55;;;12.48;;
31390;SDS011;18022;45.492;11.548;2022-11-15T04:56:41;30.15;;;12.40;;
31390;SDS011;18022;45.492;11.548;2022-11-15T04:59:07;16.42;;;11.75;;
31390;SDS011;18022;45.492;11.548;2022-11-15T05:01:33;13.35;;;11.95;;
31390;SDS011;18022;45.492;11.548;2022-11-15T05:03:58;21.52;;;11.52;;
31390;SDS011;18022;45.492;11.548;2022-11-15T05:06:43;18.88;;;13.25;;
31390;SDS011;18022;45.492;11.548;2022-11-15T05:09:08;19.10;;;13.20;;
31390;SDS011;18022;45.492;11.548;2022-11-15T05:11:34;17.08;;;13.23;;
31390;SDS011;18022;45.492;11.548;2022-11-15T05:14:00;19.05;;;14.13;;
31390;SDS011;18022;45.492;11.548;2022-11-15T05:16:26;18.50;;;14.88;;
31390;SDS011;18022;45.492;11.548;2022-11-15T05:18:52;25.75;;;14.40;;
31390;SDS011;18022;45.492;11.548;2022-11-15T05:21:18;22.65;;;13.82;;
31390;SDS011;18022;45.492;11.548;2022-11-15T05:23:44;16.80;;;14.65;;
31390;SDS011;18022;45.492;11.548;2022-11-15T05:26:10;20.65;;;13.40;;
31390;SDS011;18022;45.492;11.548;2022-11-15T05:28:36;29.08;;;14.32;;
31390;SDS011;18022;45.492;11.548;2022-11-15T05:31:02;17.50;;;13.35;;
31390;SDS011;18022;45.492;11.548;2022-11-15T05:33:30;34.50;;;12.98;;
31390;SDS011;18022;45.492;11.548;2022-11-15T05:36:00;40.25;;;14.40;;
31390;SDS011;18022;45.492;11.548;2022-11-15T05:38:43;19.25;;;14.65;;
31390;SDS011;18022;45.492;11.548;2022-11-15T05:41:09;26.50;;;14.15;;
31390;SDS011;18022;45.492;11.548;2022-11-15T05:43:36;20.92;;;13.75;;
31390;SDS011;18022;45.492;11.548;2022-11-15T05:46:05;17.00;;;13.93;;
31390;SDS011;18022;45.492;11.548;2022-11-15T05:48:31;18.67;;;13.63;;
31390;SDS011;18022;45.492;11.548;2022-11-15T05:50:59;24.15;;;14.23;;
31390;SDS011;18022;45.492;11.548;2022-11-15T05:53:25;42.33;;;14.35;;
31390;SDS011;18022;45.492;11.548;2022-11-15T05:55:51;16.30;;;12.82;;
31390;SDS011;18022;45.492;11.548;2022-11-15T05:58:18;16.38;;;13.52;;
31390;SDS011;18022;45.492;11.548;2022-11-15T06:00:45;20.20;;;13.35;;
31390;SDS011;18022;45.492;11.548;2022-11-15T06:03:11;20.90;;;13.13;;
31390;SDS011;18022;45.492;11.548;2022-11-15T06:05:39;13.05;;;11.13;;
31390;SDS011;18022;45.492;11.548;2022-11-15T06:08:05;14.70;;;11.82;;
31390;SDS011;18022;45.492;11.548;2022-11-15T06:10:30;18.38;;;12.13;;
31390;SDS011;18022;45.492;11.548;2022-11-15T06:13:01;17.25;;;11.32;;
31390;SDS011;18022;45.492;11.548;2022-11-15T06:15:28;18.80;;;11.85;;
31390;SDS011;18022;45.492;11.548;2022-11-15T06:17:57;17.10;;;11.73;;
31390;SDS011;18022;45.492;11.548;2022-11-15T06:20:23;11.25;;;8.60;;
31390;SDS011;18022;45.492;11.548;2022-11-15T06:22:50;28.50;;;11.40;;
31390;SDS011;18022;45.492;11.548;2022-11-15T06:25:16;27.77;;;11.48;;
31390;SDS011;18022;45.492;11.548;2022-11-15T06:27:41;18.92;;;10.77;;
31390;SDS011;18022;45.492;11.548;2022-11-15T06:30:07;20.10;;;10.48;;
31390;SDS011;18022;45.492;11.548;2022-11-15T06:32:33;13.60;;;10.63;;
31390;SDS011;18022;45.492;11.548;2022-11-15T06:34:59;12.70;;;11.10;;
31390;SDS011;18022;45.492;11.548;2022-11-15T06:37:25;25.17;;;9.60;;
31390;SDS011;18022;45.492;11.548;2022-11-15T06:39:50;28.17;;;11.10;;
31390;SDS011;18022;45.492;11.548;2022-11-15T06:42:16;11.15;;;9.75;;
31390;SDS011;18022;45.492;11.548;2022-11-15T06:44:42;15.07;;;9.18;;
31390;SDS011;18022;45.492;11.548;2022-11-15T06:47:07;14.40;;;10.15;;
31390;SDS011;18022;45.492;11.548;2022-11-15T06:49:33;16.20;;;9.48;;
31390;SDS011;18022;45.492;11.548;2022-11-15T06:51:59;11.70;;;10.35;;
31390;SDS011;18022;45.492;11.548;2022-11-15T06:54:24;11.80;;;10.10;;
31390;SDS011;18022;45.492;11.548;2022-11-15T06:56:50;9.88;;;8.88;;
31390;SDS011;18022;45.492;11.548;2022-11-15T06:59:16;12.07;;;9.20;;
31390;SDS011;18022;45.492;11.548;2022-11-15T07:01:41;15.43;;;10.10;;
31390;SDS011;18022;45.492;11.548;2022-11-15T07:04:07;19.17;;;9.13;;
31390;SDS011;18022;45.492;11.548;2022-11-15T07:06:33;11.80;;;9.57;;
31390;SDS011;18022;45.492;11.548;2022-11-15T07:08:58;11.15;;;8.70;;
31390;SDS011;18022;45.492;11.548;2022-11-15T07:11:24;15.80;;;8.90;;
31390;SDS011;18022;45.492;11.548;2022-11-15T07:13:49;14.02;;;9.05;;
31390;SDS011;18022;45.492;11.548;2022-11-15T07:16:15;11.82;;;9.23;;
31390;SDS011;18022;45.492;11.548;2022-11-15T07:18:41;10.07;;;9.07;;
31390;SDS011;18022;45.492;11.548;2022-11-15T07:21:08;9.52;;;8.55;;
31390;SDS011;18022;45.492;11.548;2022-11-15T07:23:35;9.88;;;8.57;;
31390;SDS011;18022;45.492;11.548;2022-11-15T07:26:03;9.93;;;8.93;;
31390;SDS011;18022;45.492;11.548;2022-11-15T07:28:29;10.43;;;8.10;;
31390;SDS011;18022;45.492;11.548;2022-11-15T07:30:55;9.93;;;8.23;;
31390;SDS011;18022;45.492;11.548;2022-11-15T07:33:20;10.15;;;9.18;;
31390;SDS011;18022;45.492;11.548;2022-11-15T07:35:46;9.32;;;8.40;;
31390;SDS011;18022;45.492;11.548;2022-11-15T07:38:15;9.55;;;8.65;;
31390;SDS011;18022;45.492;11.548;2022-11-15T07:40:44;11.93;;;10.27;;
31390;SDS011;18022;45.492;11.548;2022-11-15T07:43:10;17.67;;;9.35;;
31390;SDS011;18022;45.492;11.548;2022-11-15T07:45:40;9.95;;;8.95;;
31390;SDS011;18022;45.492;11.548;2022-11-15T07:48:10;9.90;;;8.90;;
31390;SDS011;18022;45.492;11.548;2022-11-15T07:50:36;8.45;;;7.65;;
31390;SDS011;18022;45.492;11.548;2022-11-15T07:53:02;8.02;;;7.22;;
31390;SDS011;18022;45.492;11.548;2022-11-15T07:55:27;8.57;;;7.63;;
31390;SDS011;18022;45.492;11.548;2022-11-15T07:58:04;8.07;;;7.28;;
31390;SDS011;18022;45.492;11.548;2022-11-15T08:00:32;7.97;;;7.18;;
31390;SDS011;18022;45.492;11.548;2022-11-15T08:03:09;8.60;;;7.47;;
31390;SDS011;18022;45.492;11.548;2022-11-15T08:05:41;8.75;;;7.78;;
31390;SDS011;18022;45.492;11.548;2022-11-15T08:08:08;9.07;;;8.13;;
31390;SDS011;18022;45.492;11.548;2022-11-15T08:10:35;8.65;;;7.85;;
31390;SDS011;18022;45.492;11.548;2022-11-15T08:13:02;9.50;;;8.57;;
31390;SDS011;18022;45.492;11.548;2022-11-15T08:15:30;8.80;;;8.00;;
31390;SDS011;18022;45.492;11.548;2022-11-15T08:17:57;9.82;;;8.48;;
31390;SDS011;18022;45.492;11.548;2022-11-15T08:20:26;9.90;;;8.90;;
31390;SDS011;18022;45.492;11.548;2022-11-15T08:22:55;10.57;;;8.90;;
31390;SDS011;18022;45.492;11.548;2022-11-15T08:25:25;11.07;;;8.82;;
31390;SDS011;18022;45.492;11.548;2022-11-15T08:27:52;9.27;;;8.27;;
31390;SDS011;18022;45.492;11.548;2022-11-15T08:30:19;9.85;;;8.85;;
31390;SDS011;18022;45.492;11.548;2022-11-15T08:32:45;10.40;;;8.80;;
31390;SDS011;18022;45.492;11.548;2022-11-15T08:35:11;9.43;;;8.10;;
31390;SDS011;18022;45.492;11.548;2022-11-15T08:37:36;10.73;;;9.63;;
31390;SDS011;18022;45.492;11.548;2022-11-15T08:40:03;9.80;;;8.75;;
31390;SDS011;18022;45.492;11.548;2022-11-15T08:42:29;10.38;;;8.88;;
31390;SDS011;18022;45.492;11.548;2022-11-15T08:44:55;11.38;;;9.57;;
31390;SDS011;18022;45.492;11.548;2022-11-15T08:47:20;9.43;;;8.43;;
31390;SDS011;18022;45.492;11.548;2022-11-15T08:49:46;11.10;;;9.18;;
31390;SDS011;18022;45.492;11.548;2022-11-15T08:52:12;10.88;;;9.73;;
31390;SDS011;18022;45.492;11.548;2022-11-15T08:54:39;12.70;;;9.07;;
31390;SDS011;18022;45.492;11.548;2022-11-15T08:57:06;10.85;;;9.75;;
31390;SDS011;18022;45.492;11.548;2022-11-15T08:59:32;11.17;;;9.63;;
31390;SDS011;18022;45.492;11.548;2022-11-15T09:01:57;10.82;;;9.73;;
31390;SDS011;18022;45.492;11.548;2022-11-15T09:04:23;11.52;;;9.88;;
31390;SDS011;18022;45.492;11.548;2022-11-15T09:06:49;11.63;;;9.27;;
31390;SDS011;18022;45.492;11.548;2022-11-15T09:09:14;11.57;;;9.52;;
31390;SDS011;18022;45.492;11.548;2022-11-15T09:11:40;12.43;;;9.77;;
31390;SDS011;18022;45.492;11.548;2022-11-15T09:14:06;11.60;;;9.45;;
31390;SDS011;18022;45.492;11.548;2022-11-15T09:16:31;20.48;;;13.50;;
31390;SDS011;18022;45.492;11.548;2022-11-15T09:18:57;12.68;;;10.43;;
31390;SDS011;18022;45.492;11.548;2022-11-15T09:21:23;14.30;;;11.45;;
31390;SDS011;18022;45.492;11.548;2022-11-15T09:23:51;17.33;;;14.00;;
31390;SDS011;18022;45.492;11.548;2022-11-15T09:26:17;16.05;;;12.35;;
31390;SDS011;18022;45.492;11.548;2022-11-15T09:28:43;16.83;;;13.15;;
31390;SDS011;18022;45.492;11.548;2022-11-15T09:31:09;30.10;;;24.70;;
31390;SDS011;18022;45.492;11.548;2022-11-15T09:33:35;22.13;;;17.33;;
31390;SDS011;18022;45.492;11.548;2022-11-15T09:36:03;21.75;;;14.70;;
31390;SDS011;18022;45.492;11.548;2022-11-15T09:38:31;19.23;;;15.20;;
31390;SDS011;18022;45.492;11.548;2022-11-15T09:41:05;18.83;;;14.68;;
31390;SDS011;18022;45.492;11.548;2022-11-15T09:43:46;18.20;;;15.55;;
31390;SDS011;18022;45.492;11.548;2022-11-15T09:49:13;21.15;;;16.30;;
31390;SDS011;18022;45.492;11.548;2022-11-15T09:54:31;18.52;;;15.32;;
31390;SDS011;18022;45.492;11.548;2022-11-15T09:57:04;21.88;;;16.70;;
31390;SDS011;18022;45.492;11.548;2022-11-15T10:04:50;23.27;;;16.92;;
31390;SDS011;18022;45.492;11.548;2022-11-15T10:09:57;22.52;;;16.45;;
31390;SDS011;18022;45.492;11.548;2022-11-15T10:12:24;21.25;;;16.35;;
31390;SDS011;18022;45.492;11.548;2022-11-15T10:14:57;20.27;;;17.15;;
31390;SDS011;18022;45.492;11.548;2022-11-15T10:17:49;21.67;;;16.88;;
31390;SDS011;18022;45.492;11.548;2022-11-15T10:20:22;25.25;;;17.75;;
31390;SDS011;18022;45.492;11.548;2022-11-15T10:22:51;22.08;;;17.80;;
31390;SDS011;18022;45.492;11.548;2022-11-15T10:25:30;21.27;;;16.50;;
31390;SDS011;18022;45.492;11.548;2022-11-15T10:30:42;20.77;;;16.63;;
31390;SDS011;18022;45.492;11.548;2022-11-15T10:35:48;23.60;;;16.58;;
31390;SDS011;18022;45.492;11.548;2022-11-15T10:46:45;18.85;;;15.65;;
31390;SDS011;18022;45.492;11.548;2022-11-15T10:49:32;19.90;;;16.33;;
31390;SDS011;18022;45.492;11.548;2022-11-15T10:54:39;20.52;;;16.08;;
31390;SDS011;18022;45.492;11.548;2022-11-15T10:59:42;18.48;;;14.95;;
31390;SDS011;18022;45.492;11.548;2022-11-15T11:05:00;20.08;;;15.00;;
31390;SDS011;18022;45.492;11.548;2022-11-15T11:07:28;20.50;;;15.52;;
31390;SDS011;18022;45.492;11.548;2022-11-15T11:09:59;19.13;;;15.50;;
31390;SDS011;18022;45.492;11.548;2022-11-15T11:12:45;23.20;;;15.65;;
31390;SDS011;18022;45.492;11.548;2022-11-15T11:15:12;20.17;;;16.70;;
31390;SDS011;18022;45.492;11.548;2022-11-15T11:26:11;22.75;;;18.20;;
31390;SDS011;18022;45.492;11.548;2022-11-15T11:31:58;22.05;;;17.80;;
31390;SDS011;18022;45.492;11.548;2022-11-15T11:35:32;27.05;;;18.90;;
31390;SDS011;18022;45.492;11.548;2022-11-15T11:40:29;31.42;;;21.38;;
31390;SDS011;18022;45.492;11.548;2022-11-15T11:48:43;36.58;;;24.80;;
31390;SDS011;18022;45.492;11.548;2022-11-15T11:51:28;30.70;;;21.30;;
31390;SDS011;18022;45.492;11.548;2022-11-15T11:56:32;24.65;;;17.27;;
31390;SDS011;18022;45.492;11.548;2022-11-15T11:59:05;22.30;;;16.67;;
31390;SDS011;18022;45.492;11.548;2022-11-15T12:01:43;22.13;;;16.85;;
31390;SDS011;18022;45.492;11.548;2022-11-15T12:06:58;20.70;;;16.50;;
31390;SDS011;18022;45.492;11.548;2022-11-15T12:09:43;19.77;;;15.65;;
31390;SDS011;18022;45.492;11.548;2022-11-15T12:12:34;19.27;;;15.38;;
31390;SDS011;18022;45.492;11.548;2022-11-15T12:17:39;25.02;;;17.45;;
31390;SDS011;18022;45.492;11.548;2022-11-15T12:20:13;25.30;;;16.87;;
31390;SDS011;18022;45.492;11.548;2022-11-15T12:25:25;30.27;;;20.67;;
31390;SDS011;18022;45.492;11.548;2022-11-15T12:31:03;29.80;;;20.88;;
31390;SDS011;18022;45.492;11.548;2022-11-15T12:33:41;30.67;;;20.92;;
31390;SDS011;18022;45.492;11.548;2022-11-15T12:38:51;28.88;;;21.40;;
31390;SDS011;18022;45.492;11.548;2022-11-15T12:41:20;28.05;;;20.92;;
31390;SDS011;18022;45.492;11.548;2022-11-15T12:51:12;24.02;;;18.67;;
31390;SDS011;18022;45.492;11.548;2022-11-15T12:53:38;36.20;;;23.98;;
31390;SDS011;18022;45.492;11.548;2022-11-15T13:12:02;22.30;;;18.17;;
31390;SDS011;18022;45.492;11.548;2022-11-15T13:14:54;19.85;;;14.68;;
31390;SDS011;18022;45.492;11.548;2022-11-15T13:22:39;21.60;;;15.63;;
31390;SDS011;18022;45.492;11.548;2022-11-15T13:25:21;18.17;;;14.77;;
31390;SDS011;18022;45.492;11.548;2022-11-15T13:27:47;17.45;;;13.27;;
31390;SDS011;18022;45.492;11.548;2022-11-15T13:30:25;17.73;;;13.88;;
31390;SDS011;18022;45.492;11.548;2022-11-15T13:32:54;18.23;;;13.80;;
31390;SDS011;18022;45.492;11.548;2022-11-15T13:35:24;18.63;;;14.38;;
31390;SDS011;18022;45.492;11.548;2022-11-15T13:37:53;24.40;;;16.65;;
31390;SDS011;18022;45.492;11.548;2022-11-15T13:40:26;23.17;;;16.58;;
31390;SDS011;18022;45.492;11.548;2022-11-15T13:42:56;20.23;;;16.27;;
31390;SDS011;18022;45.492;11.548;2022-11-15T13:45:23;24.42;;;18.55;;
31390;SDS011;18022;45.492;11.548;2022-11-15T13:47:53;22.60;;;16.95;;
31390;SDS011;18022;45.492;11.548;2022-11-15T13:50:22;28.63;;;22.25;;
31390;SDS011;18022;45.492;11.548;2022-11-15T13:52:56;25.95;;;19.83;;
31390;SDS011;18022;45.492;11.548;2022-11-15T13:55:24;22.80;;;17.30;;
31390;SDS011;18022;45.492;11.548;2022-11-15T13:57:58;30.88;;;20.85;;
31390;SDS011;18022;45.492;11.548;2022-11-15T14:00:38;23.38;;;18.27;;
31390;SDS011;18022;45.492;11.548;2022-11-15T14:03:21;27.23;;;18.77;;
31390;SDS011;18022;45.492;11.548;2022-11-15T14:06:03;22.35;;;15.68;;
31390;SDS011;18022;45.492;11.548;2022-11-15T14:11:36;14.68;;;10.82;;
31390;SDS011;18022;45.492;11.548;2022-11-15T14:16:35;13.57;;;9.90;;
31390;SDS011;18022;45.492;11.548;2022-11-15T14:19:12;10.13;;;8.63;;
31390;SDS011;18022;45.492;11.548;2022-11-15T14:22:07;10.43;;;9.15;;
31390;SDS011;18022;45.492;11.548;2022-11-15T14:27:39;12.13;;;7.68;;
31390;SDS011;18022;45.492;11.548;2022-11-15T14:30:11;8.93;;;7.93;;
31390;SDS011;18022;45.492;11.548;2022-11-15T14:32:46;10.52;;;8.07;;
31390;SDS011;18022;45.492;11.548;2022-11-15T14:35:17;11.15;;;8.25;;
31390;SDS011;18022;45.492;11.548;2022-11-15T14:37:45;11.40;;;8.77;;
31390;SDS011;18022;45.492;11.548;2022-11-15T14:40:17;10.88;;;9.20;;
31390;SDS011;18022;45.492;11.548;2022-11-15T14:42:45;10.25;;;8.50;;
31390;SDS011;18022;45.492;11.548;2022-11-15T14:45:21;11.48;;;8.43;;
31390;SDS011;18022;45.492;11.548;2022-11-15T14:47:47;11.07;;;9.00;;
31390;SDS011;18022;45.492;11.548;2022-11-15T14:50:13;12.15;;;9.43;;
31390;SDS011;18022;45.492;11.548;2022-11-15T14:55:25;13.10;;;9.45;;
31390;SDS011;18022;45.492;11.548;2022-11-15T14:57:53;13.68;;;10.73;;
31390;SDS011;18022;45.492;11.548;2022-11-15T15:00:20;12.25;;;10.43;;
31390;SDS011;18022;45.492;11.548;2022-11-15T15:02:47;14.65;;;10.68;;
31390;SDS011;18022;45.492;11.548;2022-11-15T15:07:43;12.93;;;10.98;;
31390;SDS011;18022;45.492;11.548;2022-11-15T15:10:10;12.18;;;10.90;;
31390;SDS011;18022;45.492;11.548;2022-11-15T15:12:36;12.45;;;11.00;;
31390;SDS011;18022;45.492;11.548;2022-11-15T15:15:02;15.57;;;13.27;;
31390;SDS011;18022;45.492;11.548;2022-11-15T15:17:29;16.58;;;12.85;;
31390;SDS011;18022;45.492;11.548;2022-11-15T15:19:54;16.75;;;13.10;;
31390;SDS011;18022;45.492;11.548;2022-11-15T15:22:20;14.85;;;12.60;;
31390;SDS011;18022;45.492;11.548;2022-11-15T15:24:50;16.23;;;13.15;;
31390;SDS011;18022;45.492;11.548;2022-11-15T15:27:17;16.27;;;12.77;;
31390;SDS011;18022;45.492;11.548;2022-11-15T15:29:42;14.00;;;11.85;;
31390;SDS011;18022;45.492;11.548;2022-11-15T15:32:08;14.45;;;12.65;;
31390;SDS011;18022;45.492;11.548;2022-11-15T15:34:35;13.75;;;11.85;;
31390;SDS011;18022;45.492;11.548;2022-11-15T15:42:15;14.40;;;12.48;;
31390;SDS011;18022;45.492;11.548;2022-11-15T15:44:41;18.95;;;13.50;;
31390;SDS011;18022;45.492;11.548;2022-11-15T15:47:11;15.75;;;11.75;;
31390;SDS011;18022;45.492;11.548;2022-11-15T15:49:43;18.52;;;12.40;;
31390;SDS011;18022;45.492;11.548;2022-11-15T15:52:09;16.50;;;13.50;;
31390;SDS011;18022;45.492;11.548;2022-11-15T15:54:34;21.33;;;16.63;;
31390;SDS011;18022;45.492;11.548;2022-11-15T15:57:00;18.70;;;15.75;;
31390;SDS011;18022;45.492;11.548;2022-11-15T15:59:26;16.92;;;13.63;;
31390;SDS011;18022;45.492;11.548;2022-11-15T16:01:52;16.52;;;13.65;;
31390;SDS011;18022;45.492;11.548;2022-11-15T16:04:17;19.52;;;13.80;;
31390;SDS011;18022;45.492;11.548;2022-11-15T16:06:43;19.73;;;15.25;;
31390;SDS011;18022;45.492;11.548;2022-11-15T16:09:16;15.93;;;12.43;;
31390;SDS011;18022;45.492;11.548;2022-11-15T16:11:45;14.38;;;10.57;;
31390;SDS011;18022;45.492;11.548;2022-11-15T16:14:12;27.70;;;20.05;;
31390;SDS011;18022;45.492;11.548;2022-11-15T16:16:37;35.92;;;29.27;;
31390;SDS011;18022;45.492;11.548;2022-11-15T16:19:04;26.80;;;23.27;;
31390;SDS011;18022;45.492;11.548;2022-11-15T16:21:30;23.67;;;16.70;;
31390;SDS011;18022;45.492;11.548;2022-11-15T16:23:56;17.58;;;13.88;;
31390;SDS011;18022;45.492;11.548;2022-11-15T16:26:28;16.88;;;13.77;;
31390;SDS011;18022;45.492;11.548;2022-11-15T16:28:54;17.17;;;13.25;;
31390;SDS011;18022;45.492;11.548;2022-11-15T16:31:20;13.57;;;10.80;;
31390;SDS011;18022;45.492;11.548;2022-11-15T16:33:46;14.20;;;11.73;;
31390;SDS011;18022;45.492;11.548;2022-11-15T16:36:22;14.80;;;12.02;;
31390;SDS011;18022;45.492;11.548;2022-11-15T16:38:49;12.50;;;10.85;;
31390;SDS011;18022;45.492;11.548;2022-11-15T16:41:17;13.75;;;11.45;;
31390;SDS011;18022;45.492;11.548;2022-11-15T16:43:45;15.02;;;10.98;;
31390;SDS011;18022;45.492;11.548;2022-11-15T16:46:18;11.90;;;10.50;;
31390;SDS011;18022;45.492;11.548;2022-11-15T16:48:48;13.90;;;11.15;;
31390;SDS011;18022;45.492;11.548;2022-11-15T16:51:14;12.77;;;11.20;;
31390;SDS011;18022;45.492;11.548;2022-11-15T16:53:40;12.48;;;10.07;;
31390;SDS011;18022;45.492;11.548;2022-11-15T16:56:23;14.55;;;10.65;;
31390;SDS011;18022;45.492;11.548;2022-11-15T16:58:51;12.35;;;10.40;;
31390;SDS011;18022;45.492;11.548;2022-11-15T17:01:33;13.52;;;10.45;;
31390;SDS011;18022;45.492;11.548;2022-11-15T17:04:00;13.02;;;11.63;;